TKI weather

Collin County Regional At Mc Kinney Airport
Dallas, Texas, United States

Public forecast

Using degrees Fahrenheit for public forecast. Weather courtesy of forecast.io.

Current aviation weather report (METAR) for Collin County Regional At Mc Kinney Airport

Retrieved 2020/08/05 10:53 UTC (7 minutes ago):

KTKI 051053Z 13007KT 10SM BKN120 24/17 A2998 RMK AO2 SLP145 T02440172

Closest aviation forecast (TAF) to Collin County Regional At Mc Kinney Airport

Closest forecast is Dallas Love Field, 23.8 nm (44.1 km) SSW. Retrieved 2020/08/05 06:36 UTC (4 hours ago):

TAF KDAL 050535Z 0506/0606 09006KT P6SM BKN110 FM051200 17007KT P6SM VCSH BKN100 FM051800 13009KT P6SM SCT100